Time;durP1;ratioP1;P1;durP2;ratioP2;P2;SDS_P1;SDS_P2;PMS_P1;PMS_P2;Temp;Humidity;BMP_temperature;BMP_pressure;BME280_temperature;BME280_humidity;BME280_pressure;Samples;Min_cycle;Max_cycle;Signal;HPM_P1;HPM_P2
2023/08/29 00:00:05;;;;;;;0.50;0.50;;;;;;;12.67;100.00;96290.00;29394;215;64009;-62
2023/08/29 00:00:38;;;;;;;0.50;0.50;;;;;;;12.65;100.00;96292.25;29395;213;63009;-64
2023/08/29 00:01:10;;;;;;;0.50;0.50;;;;;;;12.64;100.00;96293.38;29395;203;63005;-65
2023/08/29 00:01:44;;;;;;;0.50;0.50;;;;;;;12.62;100.00;96289.34;29395;269;63009;-53
2023/08/29 00:02:15;;;;;;;0.50;0.50;;;;;;;12.61;100.00;96288.56;29395;230;63010;-63
2023/08/29 00:02:48;;;;;;;0.50;0.50;;;;;;;12.60;100.00;96283.44;29395;220;63009;-64
2023/08/29 00:03:20;;;;;;;0.50;0.50;;;;;;;12.59;100.00;96288.06;29395;231;63004;-64
2023/08/29 00:03:51;;;;;;;0.47;0.47;;;;;;;12.59;100.00;96293.53;29395;231;63009;-66
2023/08/29 00:04:23;;;;;;;0.50;0.50;;;;;;;12.58;100.00;96281.03;29395;220;63004;-62
2023/08/29 00:04:58;;;;;;;0.50;0.50;;;;;;;12.56;100.00;96283.28;29395;238;63009;-62
2023/08/29 00:05:30;;;;;;;0.50;0.50;;;;;;;12.57;100.00;96284.88;29394;202;64009;-63
2023/08/29 00:06:04;;;;;;;0.50;0.50;;;;;;;12.60;100.00;96284.22;29395;229;63009;-64
2023/08/29 00:06:36;;;;;;;0.50;0.50;;;;;;;12.58;100.00;96283.75;29395;211;63005;-65
2023/08/29 00:07:07;;;;;;;0.50;0.50;;;;;;;12.57;100.00;96278.62;29394;227;64013;-65
2023/08/29 00:07:43;;;;;;;0.50;0.50;;;;;;;12.58;100.00;96280.22;29395;307;63005;-62
2023/08/29 00:08:14;;;;;;;0.50;0.50;;;;;;;12.58;100.00;96280.22;29395;212;63009;-64
2023/08/29 00:08:47;;;;;;;0.50;0.50;;;;;;;12.61;100.00;96285.84;29395;211;63000;-63
2023/08/29 00:09:18;;;;;;;0.40;0.40;;;;;;;12.61;100.00;96285.03;29395;232;63018;-64
2023/08/29 00:09:58;;;;;;;0.50;0.50;;;;;;;12.61;100.00;96291.28;29395;248;63004;-62
2023/08/29 00:10:31;;;;;;;0.40;0.40;;;;;;;12.60;100.00;96281.50;29395;367;63009;-64
2023/08/29 00:11:03;;;;;;;0.50;0.50;;;;;;;12.61;100.00;96280.41;29395;198;63004;-61
2023/08/29 00:11:34;;;;;;;0.50;0.50;;;;;;;12.63;100.00;96285.53;29395;233;63008;-63
2023/08/29 00:12:09;;;;;;;0.50;0.50;;;;;;;12.61;100.00;96287.75;29395;199;63004;-65
2023/08/29 00:12:42;;;;;;;0.50;0.50;;;;;;;12.61;100.00;96285.03;29394;226;64014;-63
2023/08/29 00:13:14;;;;;;;0.50;0.50;;;;;;;12.61;100.00;96291.28;29395;222;63005;-65
2023/08/29 00:13:45;;;;;;;0.50;0.50;;;;;;;12.63;100.00;96275.44;29395;304;63009;-64
2023/08/29 00:14:17;;;;;;;0.40;0.40;;;;;;;12.62;100.00;96282.00;29395;345;63005;-64
2023/08/29 00:14:48;;;;;;;0.45;0.45;;;;;;;12.62;100.00;96284.72;29395;232;63009;-64
2023/08/29 00:15:25;;;;;;;0.43;0.43;;;;;;;12.64;100.00;96279.75;29395;237;63005;-55
2023/08/29 00:15:57;;;;;;;0.50;0.50;;;;;;;12.62;100.00;96282.00;29395;202;63009;-62
2023/08/29 00:16:28;;;;;;;0.50;0.50;;;;;;;12.61;100.00;96280.41;29395;209;63005;-63
2023/08/29 00:16:59;;;;;;;0.50;0.50;;;;;;;12.62;100.00;96276.56;29395;333;63016;-64
2023/08/29 00:17:31;;;;;;;0.50;0.50;;;;;;;12.61;100.00;96274.94;29395;254;63010;-63
2023/08/29 00:18:02;;;;;;;0.50;0.50;;;;;;;12.60;100.00;96267.91;29394;326;64013;-65
2023/08/29 00:18:34;;;;;;;0.50;0.50;;;;;;;12.62;100.00;96276.56;29395;234;63004;-60
2023/08/29 00:19:05;;;;;;;0.50;0.50;;;;;;;12.64;100.00;96271.59;29395;205;63008;-65
2023/08/29 00:19:36;;;;;;;0.50;0.50;;;;;;;12.65;100.00;96277.84;29395;230;63004;-63
2023/08/29 00:20:10;;;;;;;0.50;0.50;;;;;;;12.64;100.00;96268.88;29395;245;63009;-66
2023/08/29 00:20:41;;;;;;;0.50;0.50;;;;;;;12.61;100.00;96271.44;29395;219;63005;-54
2023/08/29 00:21:13;;;;;;;0.50;0.50;;;;;;;12.60;100.00;96273.34;29395;389;63009;-65
2023/08/29 00:21:44;;;;;;;0.50;0.50;;;;;;;12.60;100.00;96272.53;29395;208;63005;-65
2023/08/29 00:22:17;;;;;;;0.50;0.50;;;;;;;12.59;100.00;96266.31;29395;224;63009;-65
2023/08/29 00:22:49;;;;;;;0.50;0.50;;;;;;;12.59;100.00;96279.13;29395;214;63005;-65
2023/08/29 00:23:24;;;;;;;0.50;0.50;;;;;;;12.56;100.00;96280.56;29394;236;64013;-65
2023/08/29 00:23:59;;;;;;;0.50;0.50;;;;;;;12.55;100.00;96281.66;29395;220;63005;-64
2023/08/29 00:24:31;;;;;;;0.45;0.45;;;;;;;12.54;100.00;96269.19;29395;223;63009;-63
2023/08/29 00:25:03;;;;;;;0.50;0.50;;;;;;;12.52;100.00;96276.06;29395;332;63015;-64
2023/08/29 00:25:35;;;;;;;0.50;0.50;;;;;;;12.51;100.00;96264.38;29395;238;63009;-65
2023/08/29 00:26:06;;;;;;;0.50;0.50;;;;;;;12.51;100.00;96269.81;29395;197;63004;-65
2023/08/29 00:26:37;;;;;;;0.50;0.50;;;;;;;12.50;100.00;96276.38;29395;219;63019;-64
2023/08/29 00:27:08;;;;;;;0.50;0.50;;;;;;;12.50;100.00;96268.22;29395;223;63004;-64
2023/08/29 00:27:39;;;;;;;0.50;0.50;;;;;;;12.50;100.00;96273.66;29395;223;63009;-63
2023/08/29 00:28:11;;;;;;;0.50;0.50;;;;;;;12.54;100.00;96273.81;29394;327;64009;-64
2023/08/29 00:28:46;;;;;;;0.50;0.50;;;;;;;12.53;100.00;96267.59;29395;197;63009;-63
2023/08/29 00:29:18;;;;;;;0.50;0.50;;;;;;;12.54;100.00;96268.38;29395;359;63005;-55
2023/08/29 00:29:53;;;;;;;0.50;0.50;;;;;;;12.52;100.00;96279.59;29395;260;63009;-64
2023/08/29 00:30:25;;;;;;;0.50;0.50;;;;;;;12.52;100.00;96268.69;29394;260;64009;-63
2023/08/29 00:30:59;;;;;;;0.50;0.50;;;;;;;12.50;100.00;96273.66;29395;220;63009;-64
2023/08/29 00:31:32;;;;;;;0.50;0.50;;;;;;;12.50;100.00;96268.22;29395;333;63005;-64
2023/08/29 00:32:04;;;;;;;0.50;0.50;;;;;;;12.49;100.00;96272.06;29395;277;63009;-64
2023/08/29 00:32:35;;;;;;;0.50;0.50;;;;;;;12.49;100.00;96276.69;29395;216;63004;-62
2023/08/29 00:33:09;;;;;;;0.50;0.50;;;;;;;12.49;100.00;96273.97;29394;305;64013;-63
2023/08/29 00:33:40;;;;;;;0.50;0.50;;;;;;;12.55;100.00;96275.44;29395;213;63004;-65
2023/08/29 00:34:11;;;;;;;0.50;0.50;;;;;;;12.58;100.00;96280.22;29395;197;63008;-62
2023/08/29 00:34:43;;;;;;;0.50;0.50;;;;;;;12.63;100.00;96271.91;29395;258;63004;-55
2023/08/29 00:35:17;;;;;;;0.50;0.50;;;;;;;12.64;100.00;96274.31;29395;258;63009;-63
2023/08/29 00:35:49;;;;;;;0.50;0.50;;;;;;;12.64;100.00;96279.75;29394;220;64009;-64
2023/08/29 00:36:20;;;;;;;0.50;0.50;;;;;;;12.65;100.00;96275.13;29395;225;63009;-54
2023/08/29 00:36:53;;;;;;;0.50;0.50;;;;;;;12.62;100.00;96276.56;29395;204;63005;-65
2023/08/29 00:37:25;;;;;;;0.50;0.50;;;;;;;12.66;100.00;96282.16;29395;236;63009;-55
2023/08/29 00:37:58;;;;;;;0.50;0.50;;;;;;;12.67;100.00;96273.66;29395;228;63005;-62
2023/08/29 00:38:29;;;;;;;0.50;0.50;;;;;;;12.66;100.00;96277.50;29395;211;63019;-62
2023/08/29 00:39:00;;;;;;;0.50;0.50;;;;;;;12.66;100.00;96276.72;29395;210;63005;-55
2023/08/29 00:39:33;;;;;;;0.50;0.50;;;;;;;12.70;100.00;96273.03;29395;273;63009;-63
2023/08/29 00:40:05;;;;;;;0.50;0.50;;;;;;;12.72;100.00;96278.16;29395;355;63004;-65
2023/08/29 00:40:37;;;;;;;0.50;0.50;;;;;;;12.70;100.00;96277.69;29395;210;63009;-63
2023/08/29 00:41:10;;;;;;;0.50;0.50;;;;;;;12.68;100.00;96278.00;29394;267;64021;-63
2023/08/29 00:41:42;;;;;;;0.50;0.50;;;;;;;12.67;100.00;96281.03;29395;338;63009;-62
2023/08/29 00:42:13;;;;;;;0.40;0.40;;;;;;;12.66;100.00;96282.97;29395;219;63004;-63
2023/08/29 00:42:44;;;;;;;0.50;0.50;;;;;;;12.65;100.00;96275.91;29395;225;63009;-64
2023/08/29 00:43:15;;;;;;;0.50;0.50;;;;;;;12.63;100.00;96285.53;29395;252;63007;-63
2023/08/29 00:43:47;;;;;;;0.50;0.50;;;;;;;12.61;100.00;96285.84;29395;225;63009;-62
2023/08/29 00:44:19;;;;;;;0.43;0.43;;;;;;;12.61;100.00;96285.84;29395;235;63005;-55
2023/08/29 00:44:50;;;;;;;0.50;0.50;;;;;;;12.60;100.00;96278.00;29395;206;63020;-64
2023/08/29 00:45:23;;;;;;;0.50;0.50;;;;;;;12.58;100.00;96288.41;29395;239;63005;-65
2023/08/29 00:45:55;;;;;;;0.50;0.50;;;;;;;12.56;100.00;96288.72;29395;208;63020;-64
2023/08/29 00:46:27;;;;;;;0.50;0.50;;;;;;;12.55;100.00;96286.31;29394;204;64009;-65
2023/08/29 00:46:59;;;;;;;0.50;0.50;;;;;;;12.54;100.00;96288.22;29395;202;63009;-64
2023/08/29 00:47:31;;;;;;;0.50;0.50;;;;;;;12.54;100.00;96293.69;29395;360;63009;-66
2023/08/29 00:48:04;;;;;;;0.50;0.50;;;;;;;12.54;100.00;96293.69;29395;242;63009;-64
2023/08/29 00:48:35;;;;;;;0.50;0.50;;;;;;;12.53;100.00;96294.00;29395;205;63004;-64
2023/08/29 00:49:07;;;;;;;0.40;0.40;;;;;;;12.52;100.00;96285.03;29395;342;63009;-63
2023/08/29 00:49:39;;;;;;;0.50;0.50;;;;;;;12.53;100.00;96294.00;29395;199;63004;-54
2023/08/29 00:50:10;;;;;;;0.50;0.50;;;;;;;12.53;100.00;96292.06;29395;231;63009;-65
2023/08/29 00:50:42;;;;;;;0.50;0.50;;;;;;;12.55;100.00;96292.56;29395;325;63005;-64
2023/08/29 00:51:14;;;;;;;0.50;0.50;;;;;;;12.54;100.00;96290.94;29395;370;63009;-66
2023/08/29 00:51:46;;;;;;;0.50;0.50;;;;;;;12.54;100.00;96293.69;29394;224;64009;-63
2023/08/29 00:52:20;;;;;;;0.50;0.50;;;;;;;12.54;100.00;96288.22;29394;221;64013;-65
2023/08/29 00:52:58;;;;;;;0.50;0.50;;;;;;;12.52;100.00;96295.09;29395;280;63005;-65
2023/08/29 00:53:29;;;;;;;0.50;0.50;;;;;;;12.52;100.00;96295.09;29395;376;63009;-66
2023/08/29 00:54:03;;;;;;;0.50;0.50;;;;;;;12.51;100.00;96296.22;29395;280;63005;-63
2023/08/29 00:54:35;;;;;;;0.50;0.50;;;;;;;12.52;100.00;96292.38;29395;237;63009;-64
2023/08/29 00:55:08;;;;;;;0.50;0.50;;;;;;;12.52;100.00;96298.63;29395;225;63004;-63
2023/08/29 00:55:40;;;;;;;0.50;0.50;;;;;;;12.47;100.00;96285.22;29395;209;63009;-64
2023/08/29 00:56:17;;;;;;;0.50;0.50;;;;;;;12.50;100.00;96295.44;29395;239;63004;-54
2023/08/29 00:56:49;;;;;;;0.50;0.50;;;;;;;12.48;100.00;96294.94;29395;215;63008;-64
2023/08/29 00:57:20;;;;;;;0.50;0.50;;;;;;;12.47;100.00;96290.66;29394;239;64008;-64
2023/08/29 00:57:56;;;;;;;0.50;0.50;;;;;;;12.46;100.00;96289.06;29395;215;63020;-54
2023/08/29 00:58:28;;;;;;;0.50;0.50;;;;;;;12.46;100.00;96286.31;29395;223;63005;-65
2023/08/29 00:59:00;;;;;;;0.50;0.50;;;;;;;12.47;100.00;96287.94;29395;218;63009;-64
2023/08/29 00:59:32;;;;;;;0.50;0.50;;;;;;;12.47;100.00;96292.56;29395;198;63005;-65
2023/08/29 01:00:05;;;;;;;0.40;0.40;;;;;;;12.45;100.00;96290.16;29395;225;63009;-64
2023/08/29 01:00:37;;;;;;;0.50;0.50;;;;;;;12.47;100.00;96295.28;29395;230;63005;-65
2023/08/29 01:01:08;;;;;;;0.43;0.43;;;;;;;12.46;100.00;96289.06;29395;230;63024;-65
2023/08/29 01:01:41;;;;;;;0.50;0.50;;;;;;;12.46;100.00;96285.53;29395;209;63004;-65
2023/08/29 01:02:12;;;;;;;0.50;0.50;;;;;;;12.48;100.00;96288.69;29395;208;63009;-63
2023/08/29 01:02:43;;;;;;;0.50;0.50;;;;;;;12.48;100.00;96294.94;29394;239;64009;-54
2023/08/29 01:03:15;;;;;;;0.50;0.50;;;;;;;12.47;100.00;96290.66;29395;202;63009;-52
2023/08/29 01:03:47;;;;;;;0.50;0.50;;;;;;;12.47;100.00;96289.84;29395;215;63011;-64
2023/08/29 01:04:19;;;;;;;0.50;0.50;;;;;;;12.46;100.00;96294.50;29395;218;63008;-65
2023/08/29 01:04:54;;;;;;;0.40;0.40;;;;;;;12.45;100.00;96297.53;29394;210;64008;-53
2023/08/29 01:05:28;;;;;;;0.50;0.50;;;;;;;12.46;100.00;96293.69;29395;306;63020;-59
2023/08/29 01:05:59;;;;;;;0.50;0.50;;;;;;;12.54;100.00;96290.94;29395;216;63005;-55
2023/08/29 01:06:33;;;;;;;0.50;0.50;;;;;;;12.56;100.00;96293.34;29395;203;63009;-55
2023/08/29 01:07:05;;;;;;;0.50;0.50;;;;;;;12.57;100.00;96292.22;29395;230;63005;-66
2023/08/29 01:07:36;;;;;;;0.50;0.50;;;;;;;12.58;100.00;96289.19;29395;231;63009;-65
2023/08/29 01:08:08;;;;;;;0.50;0.50;;;;;;;12.57;100.00;96293.03;29395;229;63005;-65
2023/08/29 01:08:40;;;;;;;0.50;0.50;;;;;;;12.57;100.00;96286.78;29394;196;64013;-66
2023/08/29 01:09:14;;;;;;;0.50;0.50;;;;;;;12.54;100.00;96285.50;29395;225;63004;-64
2023/08/29 01:09:46;;;;;;;0.50;0.50;;;;;;;12.52;100.00;96287.75;29395;199;63009;-65
2023/08/29 01:10:28;;;;;;;0.50;0.50;;;;;;;12.51;100.00;96291.59;29395;362;63004;-66
2023/08/29 01:11:26;;;;;;;0.50;0.50;;;;;;;12.50;100.00;96284.53;29395;202;63009;-55
2023/08/29 01:12:17;;;;;;;0.50;0.50;;;;;;;12.49;100.00;96282.94;29395;277;63005;-65
2023/08/29 01:12:59;;;;;;;0.50;0.50;;;;;;;12.49;100.00;96282.13;29439;224;125009;-55
2023/08/29 01:13:47;;;;;;;0.50;0.50;;;;;;;12.49;100.00;96285.66;29371;295;64009;-65
2023/08/29 01:14:58;;;;;;;0.50;0.50;;;;;;;12.47;100.00;96279.78;29395;339;63009;-67
2023/08/29 01:15:38;;;;;;;0.50;0.50;;;;;;;12.48;100.00;96275.91;29395;220;63005;-64
2023/08/29 01:16:11;;;;;;;0.50;0.50;;;;;;;12.49;100.00;96285.66;29395;211;63009;-64
2023/08/29 01:16:49;;;;;;;0.50;0.50;;;;;;;12.49;100.00;96288.38;29395;230;63004;-54
2023/08/29 01:17:31;;;;;;;0.50;0.50;;;;;;;12.50;100.00;96283.75;29395;280;63009;-64
2023/08/29 01:18:05;;;;;;;0.50;0.50;;;;;;;12.50;100.00;96281.81;29395;206;63004;-66
2023/08/29 01:18:41;;;;;;;0.50;0.50;;;;;;;12.51;100.00;96288.87;29394;276;64013;-65
2023/08/29 01:19:15;;;;;;;0.50;0.50;;;;;;;12.51;100.00;96285.34;29394;210;64008;-64
2023/08/29 01:19:52;;;;;;;0.50;0.50;;;;;;;12.51;100.00;96286.16;29394;237;64014;-54
2023/08/29 01:20:27;;;;;;;0.50;0.50;;;;;;;12.50;100.00;96284.53;29395;235;63005;-64
2023/08/29 01:21:49;;;;;;;0.50;0.50;;;;;;;12.52;100.00;96289.66;29395;325;63009;-66
2023/08/29 01:23:09;;;;;;;0.50;0.50;;;;;;;12.51;100.00;96280.69;29417;245;63005;-65
2023/08/29 01:24:00;;;;;;;0.50;0.50;;;;;;;12.50;100.00;96289.97;29395;205;63009;-54
2023/08/29 01:24:59;;;;;;;0.50;0.50;;;;;;;12.51;100.00;96288.87;29417;330;63004;-65
2023/08/29 01:26:15;;;;;;;0.50;0.50;;;;;;;12.54;100.00;96290.16;29376;271;126013;-66
2023/08/29 01:26:49;;;;;;;0.50;0.50;;;;;;;12.53;100.00;96291.28;29417;354;63004;-64
2023/08/29 01:27:20;;;;;;;0.50;0.50;;;;;;;12.53;100.00;96289.34;29395;228;63009;-63
2023/08/29 01:27:53;;;;;;;0.50;0.50;;;;;;;12.54;100.00;96290.94;29395;198;63011;-66
2023/08/29 01:28:30;;;;;;;0.47;0.47;;;;;;;12.55;100.00;96289.84;29395;335;63009;-63
2023/08/29 01:29:05;;;;;;;0.50;0.50;;;;;;;12.54;100.00;96290.94;29395;202;63005;-65
2023/08/29 01:29:38;;;;;;;0.50;0.50;;;;;;;12.55;100.00;96289.84;29395;221;63013;-64
2023/08/29 01:30:13;;;;;;;0.50;0.50;;;;;;;12.57;100.00;96293.03;29395;222;63005;-63
2023/08/29 01:30:45;;;;;;;0.75;0.75;;;;;;;12.59;100.00;96288.06;29394;272;64013;-66
2023/08/29 01:31:18;;;;;;;0.50;0.50;;;;;;;12.59;100.00;96279.91;29395;204;63004;-65
2023/08/29 01:31:51;;;;;;;0.50;0.50;;;;;;;12.59;100.00;96282.63;29395;248;63009;-66
2023/08/29 01:32:25;;;;;;;0.50;0.50;;;;;;;12.59;100.00;96288.06;29395;236;63010;-66
2023/08/29 01:32:58;;;;;;;0.50;0.50;;;;;;;12.57;100.00;96290.31;29395;281;63009;-65
2023/08/29 01:33:30;;;;;;;0.50;0.50;;;;;;;12.56;100.00;96286.00;29395;217;63004;-66
2023/08/29 01:34:03;;;;;;;0.50;0.50;;;;;;;12.55;100.00;96287.09;29395;221;63008;-66
2023/08/29 01:34:34;;;;;;;0.50;0.50;;;;;;;12.55;100.00;96281.66;29395;237;63017;-64
2023/08/29 01:35:07;;;;;;;0.50;0.50;;;;;;;12.54;100.00;96285.50;29395;266;63009;-66
2023/08/29 01:35:49;;;;;;;0.50;0.50;;;;;;;12.53;100.00;96288.56;29394;287;64009;-67
2023/08/29 01:36:21;;;;;;;0.50;0.50;;;;;;;12.51;100.00;96286.16;29394;319;64013;-67
2023/08/29 01:36:54;;;;;;;0.50;0.50;;;;;;;12.51;100.00;96291.59;29395;222;63005;-66
2023/08/29 01:37:25;;;;;;;0.50;0.50;;;;;;;12.52;100.00;96287.75;29395;216;63009;-63
2023/08/29 01:37:56;;;;;;;0.50;0.50;;;;;;;12.53;100.00;96286.63;29395;207;63005;-66
2023/08/29 01:38:28;;;;;;;0.50;0.50;;;;;;;12.54;100.00;96290.94;29395;236;63009;-66
2023/08/29 01:38:59;;;;;;;0.50;0.50;;;;;;;12.66;100.00;96288.41;29395;239;63004;-61
2023/08/29 01:39:30;;;;;;;0.50;0.50;;;;;;;12.71;100.00;96285.53;29395;251;63009;-64
2023/08/29 01:40:06;;;;;;;0.50;0.50;;;;;;;12.71;100.00;96285.53;29395;224;63010;-65
2023/08/29 01:40:40;;;;;;;0.50;0.50;;;;;;;12.69;100.00;96278.78;29395;278;63009;-63
2023/08/29 01:41:12;;;;;;;0.50;0.50;;;;;;;12.68;100.00;96282.63;29394;219;64009;-64
2023/08/29 01:41:43;;;;;;;0.50;0.50;;;;;;;12.70;100.00;96281.19;29394;196;64013;-63
2023/08/29 01:42:14;;;;;;;0.50;0.50;;;;;;;12.69;100.00;96286.97;29395;197;63005;-54
2023/08/29 01:42:46;;;;;;;0.50;0.50;;;;;;;12.66;100.00;96287.59;29394;232;64014;-66
2023/08/29 01:43:19;;;;;;;0.40;0.40;;;;;;;12.62;100.00;96282.00;29395;216;63005;-65
2023/08/29 01:43:54;;;;;;;0.43;0.43;;;;;;;12.62;100.00;96287.44;29395;329;63009;-65
2023/08/29 01:44:25;;;;;;;0.43;0.43;;;;;;;12.62;100.00;96282.00;29395;226;63005;-66
2023/08/29 01:44:57;;;;;;;0.40;0.40;;;;;;;12.61;100.00;96280.41;29395;195;63009;-62
2023/08/29 01:45:28;;;;;;;0.50;0.50;;;;;;;12.60;100.00;96278.78;29395;318;63005;-65
2023/08/29 01:45:59;;;;;;;0.50;0.50;;;;;;;12.57;100.00;96284.88;29395;222;63009;-66
2023/08/29 01:46:30;;;;;;;0.50;0.50;;;;;;;12.56;100.00;96280.56;29395;202;63004;-66
2023/08/29 01:47:02;;;;;;;0.50;0.50;;;;;;;12.56;100.00;96277.81;29395;204;63009;-65
2023/08/29 01:47:35;;;;;;;0.50;0.50;;;;;;;12.55;100.00;96276.22;29395;323;63004;-65
2023/08/29 01:48:07;;;;;;;0.47;0.47;;;;;;;12.55;100.00;96281.66;29394;208;64013;-64
2023/08/29 01:48:40;;;;;;;0.50;0.50;;;;;;;12.54;100.00;96284.72;29395;237;63004;-54
2023/08/29 01:49:12;;;;;;;0.50;0.50;;;;;;;12.53;100.00;96275.75;29395;240;63024;-63
2023/08/29 01:49:44;;;;;;;0.50;0.50;;;;;;;12.54;100.00;96290.16;29395;212;63005;-65
2023/08/29 01:50:20;;;;;;;0.50;0.50;;;;;;;12.52;100.00;96285.03;29395;246;63009;-66
2023/08/29 01:50:51;;;;;;;0.50;0.50;;;;;;;12.52;100.00;96279.59;29395;227;63008;-66
2023/08/29 01:51:24;;;;;;;0.50;0.50;;;;;;;12.51;100.00;96283.44;29395;221;63009;-65
2023/08/29 01:51:55;;;;;;;0.45;0.45;;;;;;;12.53;100.00;96280.38;29394;353;64009;-65
2023/08/29 01:52:26;;;;;;;0.40;0.40;;;;;;;12.52;100.00;96282.31;29395;378;63009;-65
2023/08/29 01:53:00;;;;;;;0.50;0.50;;;;;;;12.54;100.00;96285.50;29395;291;63005;-66
2023/08/29 01:53:35;;;;;;;0.43;0.43;;;;;;;12.54;100.00;96285.50;29395;239;63015;-65
2023/08/29 01:54:06;;;;;;;0.43;0.43;;;;;;;12.54;100.00;96274.63;29395;313;63004;-64
2023/08/29 01:54:37;;;;;;;0.50;0.50;;;;;;;12.55;100.00;96280.87;29395;300;63016;-65
2023/08/29 01:55:09;;;;;;;0.50;0.50;;;;;;;12.54;100.00;96273.81;29395;203;63004;-64
2023/08/29 01:55:43;;;;;;;0.40;0.40;;;;;;;12.54;100.00;96282.78;29395;207;63008;-64
2023/08/29 01:56:19;;;;;;;0.40;0.40;;;;;;;12.53;100.00;96278.47;29395;345;63008;-65
2023/08/29 01:56:53;;;;;;;0.50;0.50;;;;;;;12.54;100.00;96280.06;29395;218;63018;-64
2023/08/29 01:57:26;;;;;;;0.40;0.40;;;;;;;12.55;100.00;96281.66;29394;258;64009;-53
2023/08/29 01:57:59;;;;;;;0.50;0.50;;;;;;;12.55;100.00;96278.16;29395;286;63009;-65
2023/08/29 01:58:31;;;;;;;0.50;0.50;;;;;;;12.55;100.00;96278.94;29395;208;63008;-66
2023/08/29 01:59:06;;;;;;;0.43;0.43;;;;;;;12.55;100.00;96281.66;29395;212;63009;-65
2023/08/29 01:59:38;;;;;;;0.40;0.40;;;;;;;12.54;100.00;96273.81;29395;207;63005;-65
2023/08/29 02:00:12;;;;;;;0.50;0.50;;;;;;;12.54;100.00;96279.25;29395;227;63016;-65
2023/08/29 02:00:44;;;;;;;0.50;0.50;;;;;;;12.55;100.00;96278.94;29395;231;63004;-65
2023/08/29 02:01:17;;;;;;;0.50;0.50;;;;;;;12.54;100.00;96280.06;29395;230;63009;-65
2023/08/29 02:01:52;;;;;;;0.50;0.50;;;;;;;12.55;100.00;96276.22;29394;399;64009;-66
2023/08/29 02:02:23;;;;;;;0.40;0.40;;;;;;;12.56;100.00;96282.47;29395;206;63009;-65
2023/08/29 02:02:54;;;;;;;0.50;0.50;;;;;;;12.55;100.00;96280.87;29395;229;63004;-65
2023/08/29 02:03:26;;;;;;;0.50;0.50;;;;;;;12.54;100.00;96280.06;29395;227;63008;-65
2023/08/29 02:03:57;;;;;;;0.50;0.50;;;;;;;12.53;100.00;96277.66;29395;209;63005;-65
2023/08/29 02:04:29;;;;;;;0.50;0.50;;;;;;;12.53;100.00;96277.66;29395;360;63017;-62
2023/08/29 02:05:00;;;;;;;0.50;0.50;;;;;;;12.57;100.00;96276.72;29396;220;63005;-66
2023/08/29 02:05:32;;;;;;;0.50;0.50;;;;;;;12.58;100.00;96275.59;29396;228;63009;-63
2023/08/29 02:06:03;;;;;;;0.50;0.50;;;;;;;12.59;100.00;96276.38;29396;280;63017;-65
2023/08/29 02:06:35;;;;;;;0.50;0.50;;;;;;;12.60;100.00;96276.06;29395;358;64013;-65
2023/08/29 02:07:06;;;;;;;0.50;0.50;;;;;;;12.59;100.00;96277.19;29396;232;63000;-66
2023/08/29 02:07:40;;;;;;;0.50;0.50;;;;;;;12.58;100.00;96272.88;29396;196;63009;-54
2023/08/29 02:08:12;;;;;;;0.50;0.50;;;;;;;12.59;100.00;96277.19;29396;240;63011;-65
2023/08/29 02:08:44;;;;;;;0.50;0.50;;;;;;;12.58;100.00;96275.59;29396;197;63017;-65
2023/08/29 02:09:16;;;;;;;0.50;0.50;;;;;;;12.59;100.00;96282.63;29395;386;63004;-64
2023/08/29 02:09:47;;;;;;;0.50;0.50;;;;;;;12.59;100.00;96277.19;29395;221;64013;-54
2023/08/29 02:10:21;;;;;;;0.50;0.50;;;;;;;12.57;100.00;96274.00;29395;205;63004;-66
2023/08/29 02:10:53;;;;;;;0.50;0.50;;;;;;;12.56;100.00;96275.09;29396;362;63008;-65
2023/08/29 02:11:24;;;;;;;0.50;0.50;;;;;;;12.55;100.00;96276.22;29396;204;63004;-65
2023/08/29 02:11:55;;;;;;;0.50;0.50;;;;;;;12.55;100.00;96265.34;29396;311;63009;-66
2023/08/29 02:12:28;;;;;;;0.50;0.50;;;;;;;12.57;100.00;96274.00;29396;216;63005;-64
2023/08/29 02:13:00;;;;;;;0.50;0.50;;;;;;;12.57;100.00;96271.25;29396;310;63026;-63
2023/08/29 02:13:32;;;;;;;0.50;0.50;;;;;;;12.60;100.00;96269.81;29396;235;63005;-64
2023/08/29 02:14:04;;;;;;;0.50;0.50;;;;;;;12.61;100.00;96269.50;29396;360;63009;-64
2023/08/29 02:14:35;;;;;;;0.50;0.50;;;;;;;12.61;100.00;96274.94;29396;198;63012;-65
2023/08/29 02:15:08;;;;;;;0.50;0.50;;;;;;;12.62;100.00;96273.81;29395;222;64013;-65
2023/08/29 02:15:40;;;;;;;0.50;0.50;;;;;;;12.61;100.00;96264.06;29396;313;63005;-66
2023/08/29 02:16:11;;;;;;;0.50;0.50;;;;;;;12.60;100.00;96259.75;29396;266;63014;-54
2023/08/29 02:16:42;;;;;;;0.50;0.50;;;;;;;12.59;100.00;96265.50;29396;208;63004;-66
2023/08/29 02:17:13;;;;;;;0.50;0.50;;;;;;;12.59;100.00;96266.31;29395;205;64013;-65
2023/08/29 02:17:45;;;;;;;0.50;0.50;;;;;;;12.59;100.00;96265.50;29395;230;64009;-65
2023/08/29 02:18:16;;;;;;;0.50;0.50;;;;;;;12.58;100.00;96263.91;29396;242;63008;-65
2023/08/29 02:18:47;;;;;;;0.50;0.50;;;;;;;12.57;100.00;96265.81;29396;234;63004;-66
2023/08/29 02:19:19;;;;;;;0.47;0.47;;;;;;;12.56;100.00;96261.50;29396;209;63009;-65
2023/08/29 02:19:51;;;;;;;0.50;0.50;;;;;;;12.55;100.00;96259.09;29396;235;63005;-65
2023/08/29 02:20:22;;;;;;;0.50;0.50;;;;;;;12.56;100.00;96266.13;29396;220;63009;-65
2023/08/29 02:20:54;;;;;;;0.50;0.50;;;;;;;12.56;100.00;96260.69;29396;207;63005;-66
2023/08/29 02:21:26;;;;;;;0.50;0.50;;;;;;;12.55;100.00;96265.34;29396;207;63009;-65
2023/08/29 02:21:58;;;;;;;0.50;0.50;;;;;;;12.54;100.00;96261.00;29395;202;64009;-65
2023/08/29 02:22:31;;;;;;;0.65;0.65;;;;;;;12.54;100.00;96262.94;29396;245;63009;-65
2023/08/29 02:23:03;;;;;;;0.50;0.50;;;;;;;12.55;100.00;96265.34;29396;203;63005;-65
2023/08/29 02:23:35;;;;;;;0.50;0.50;;;;;;;12.53;100.00;96258.63;29396;211;63009;-64
2023/08/29 02:24:07;;;;;;;0.40;0.40;;;;;;;12.54;100.00;96263.75;29396;286;63004;-65
2023/08/29 02:24:38;;;;;;;0.40;0.40;;;;;;;12.54;100.00;96260.22;29396;237;63009;-67
2023/08/29 02:25:10;;;;;;;0.50;0.50;;;;;;;12.54;100.00;96266.47;29396;251;63004;-65
2023/08/29 02:25:41;;;;;;;0.40;0.40;;;;;;;12.52;100.00;96260.53;29396;254;63009;-65
2023/08/29 02:26:12;;;;;;;0.50;0.50;;;;;;;12.52;100.00;96260.53;29396;216;63004;-65
2023/08/29 02:26:46;;;;;;;0.40;0.40;;;;;;;12.52;100.00;96260.53;29396;245;63005;-65
2023/08/29 02:27:17;;;;;;;0.40;0.40;;;;;;;12.51;100.00;96264.38;29395;202;64009;-64
2023/08/29 02:27:49;;;;;;;0.50;0.50;;;;;;;12.51;100.00;96258.94;29396;207;63019;-65
2023/08/29 02:28:20;;;;;;;0.40;0.40;;;;;;;12.52;100.00;96255.09;29396;211;63008;-65
2023/08/29 02:28:55;;;;;;;0.50;0.50;;;;;;;12.51;100.00;96261.66;29396;252;63009;-65
2023/08/29 02:29:28;;;;;;;0.43;0.43;;;;;;;12.51;100.00;96253.50;29396;202;63005;-65
2023/08/29 02:29:59;;;;;;;0.50;0.50;;;;;;;12.51;100.00;96258.94;29396;222;63009;-65
2023/08/29 02:30:36;;;;;;;0.40;0.40;;;;;;;12.50;100.00;96251.87;29395;273;64009;-65
2023/08/29 02:31:13;;;;;;;0.50;0.50;;;;;;;12.49;100.00;96253.00;29396;296;63009;-65
2023/08/29 02:31:45;;;;;;;0.47;0.47;;;;;;;12.48;100.00;96248.69;29396;331;63004;-66
2023/08/29 02:32:17;;;;;;;0.50;0.50;;;;;;;12.46;100.00;96250.97;29396;280;63009;-64
2023/08/29 02:32:49;;;;;;;0.50;0.50;;;;;;;12.45;100.00;96254.81;29396;198;63004;-66
2023/08/29 02:33:21;;;;;;;0.50;0.50;;;;;;;12.45;100.00;96249.34;29396;404;63008;-64
2023/08/29 02:33:53;;;;;;;0.40;0.40;;;;;;;12.45;100.00;96251.28;29396;237;63004;-65
2023/08/29 02:34:25;;;;;;;0.50;0.50;;;;;;;12.45;100.00;96251.28;29396;270;63009;-63
2023/08/29 02:35:00;;;;;;;0.50;0.50;;;;;;;12.45;100.00;96254.00;29395;223;64009;-64
2023/08/29 02:35:32;;;;;;;0.50;0.50;;;;;;;12.46;100.00;96250.97;29396;206;63009;-65
2023/08/29 02:36:04;;;;;;;0.50;0.50;;;;;;;12.46;100.00;96250.16;29395;339;64026;-65
2023/08/29 02:36:36;;;;;;;0.50;0.50;;;;;;;12.47;100.00;96249.84;29396;240;63009;-53
2023/08/29 02:37:07;;;;;;;0.50;0.50;;;;;;;12.49;100.00;96247.56;29396;290;63005;-65
2023/08/29 02:37:40;;;;;;;0.50;0.50;;;;;;;12.48;100.00;96248.69;29396;218;63009;-64
2023/08/29 02:38:11;;;;;;;0.50;0.50;;;;;;;12.48;100.00;96254.12;29396;221;63005;-65